Thursday, September 20, 2018, 1:04 PM EDT
Back to Local

KOWD, Norwood Memorial Airport

Location: Norwood, MA, United States Lat: 42.183
Local Time: 1:04 PM EDT (17:04 GMT) Lon: -71.167
Time Zone: US/Eastern Elev: 49 ft

Show me the last for .
Show Decoded

2018-09-20 12:53 METAR KOWD 201653Z 05006KT 10SM FEW019 SCT025 OVC040 18/14 A3026 RMK AO2
                 RAB1555E04B39E48 SLP247 P0000 T01830139 =
2018-09-20 12:49 METAR KOWD 201649Z 05006KT 10SM FEW019 BKN024 OVC040 18/14 A3026 RMK AO2
                 RAB1555E04B39E48 P0000 =
2018-09-20 12:16 METAR KOWD 201616Z 04007KT 360V070 10SM FEW019 SCT026 OVC035 18/14 A3027 RMK AO2
                 RAB1555E04 P0000 T01830139 =
2018-09-20 11:53 METAR KOWD 201553Z 06008KT 10SM OVC021 18/14 A3027 RMK AO2 SLP249 T01830139 =
2018-09-20 11:39 METAR KOWD 201539Z 05008KT 10SM BKN022 BKN027 OVC044 19/14 A3026 RMK AO2
                 T01890139 =
2018-09-20 11:16 METAR KOWD 201516Z 04007KT 10SM SCT022 OVC045 19/14 A3025 RMK AO2 T01940139 =
2018-09-20 10:53 METAR KOWD 201453Z 36005KT 10SM SCT021 BKN029 19/13 A3025 RMK AO2 SLP244
                 T01940133 51014 =
2018-09-20 10:05 METAR KOWD 201405Z 05007KT 10SM SCT021 BKN029 19/14 A3025 RMK AO2 T01940144 =
2018-09-20 09:53 METAR KOWD 201353Z 06010KT 10SM SCT026 BKN031 19/14 A3024 RMK AO2 SLP239
                 T01940144 =
2018-09-20 09:43 METAR KOWD 201343Z 06008KT 10SM FEW022 BKN031 19/14 A3024 RMK AO2 T01890139 =
2018-09-20 08:53 METAR KOWD 201253Z VRB05KT 10SM FEW016 OVC026 18/14 A3021 RMK AO2 SLP230
                 T01830144 =
2018-09-20 08:27 METAR KOWD 201227Z 01006KT 10SM FEW015 BKN027 18/14 A3021 RMK AO2 T01780144 =
2018-09-20 07:53 METAR KOWD 201153Z 02006KT 10SM SCT026 BKN031 18/14 A3019 RMK AO2 SLP223
                 T01780144 10178 20156 53021 =
2018-09-20 06:53 METAR KOWD 201053Z 04006KT 10SM OVC023 17/14 A3017 RMK AO2 SLP215 T01670144 =
2018-09-20 06:08 METAR KOWD 201008Z AUTO 01003KT 10SM OVC015 16/14 A3014 RMK AO2 T01610144 =
2018-09-20 05:53 METAR KOWD 200953Z AUTO 04004KT 10SM BKN014 16/14 A3014 RMK AO2 SLP205 T01610139
                 =
2018-09-20 05:42 METAR KOWD 200942Z AUTO 35003KT 10SM BKN015 16/14 A3014 RMK AO2 T01610139 =
2018-09-20 04:53 METAR KOWD 200853Z AUTO 36004KT 10SM CLR 16/14 A3013 RMK AO2 SLP201 T01610139
                 52004 =
2018-09-20 04:13 METAR KOWD 200813Z AUTO 04004KT 10SM FEW015 SCT023 SCT055 16/14 A3012 RMK AO2
                 T01560139 =
2018-09-20 03:53 METAR KOWD 200753Z AUTO 35003KT 10SM BKN017 BKN024 BKN029 16/14 A3013 RMK AO2
                 SLP201 T01610139 =
2018-09-20 02:53 METAR KOWD 200653Z AUTO 00000KT 10SM BKN017 BKN025 16/14 A3012 RMK AO2 SLP198
                 T01610139 =
2018-09-20 01:53 METAR KOWD 200553Z AUTO 34003KT 10SM SCT055 16/13 A3011 RMK AO2 SLP196 T01610133
                 10178 20161 51012 =
2018-09-20 01:27 METAR KOWD 200527Z AUTO 02004KT 10SM SCT029 SCT055 17/13 A3011 RMK AO2 T01670133
                 =
2018-09-20 00:53 METAR KOWD 200453Z AUTO 01004KT 10SM OVC028 17/13 A3011 RMK AO2 SLP195 T01720133
                 402170161 =
2018-09-19 23:53 METAR KOWD 200353Z AUTO 35005KT 10SM BKN025 OVC031 17/13 A3009 RMK AO2 SLP188
                 T01720133 =
2018-09-19 23:18 METAR KOWD 200318Z AUTO 04004KT 10SM BKN026 BKN049 17/13 A3008 RMK AO2 T01720133
                 =
2018-09-19 23:09 METAR KOWD 200309Z AUTO 02003KT 10SM SCT026 BKN050 17/13 A3008 RMK AO2 T01670128
                 =
2018-09-19 22:53 METAR KOWD 200253Z AUTO 05007KT 10SM BKN026 OVC050 17/13 A3008 RMK AO2 SLP184
                 T01720133 51011 =
2018-09-19 22:21 METAR KOWD 200221Z AUTO 03008KT 10SM BKN025 OVC030 17/13 A3008 RMK AO2 T01720133
                 =
2018-09-19 21:53 METAR KOWD 200153Z VRB05KT 10SM SCT021 OVC030 17/14 A3007 RMK AO2 SLP181
                 T01720139 =
2018-09-19 21:04 METAR KOWD 200104Z 03006KT 10SM FEW019 BKN023 OVC050 17/14 A3007 RMK AO2
                 T01720139 =
2018-09-19 20:53 METAR KOWD 200053Z 05005KT 10SM FEW021 BKN031 BKN050 17/14 A3006 RMK AO2 SLP179
                 T01670139 =
2018-09-19 20:09 METAR KOWD 200009Z 05004KT 10SM SCT028 17/14 A3005 RMK AO2 T01670139 =
2018-09-19 19:53 METAR KOWD 192353Z 07008KT 10SM FEW018 BKN028 OVC050 17/14 A3004 RMK AO2 SLP173
                 T01670139 10189 20167 51022 =
2018-09-19 19:45 METAR KOWD 192345Z 06005KT 10SM FEW017 OVC028 17/14 A3005 RMK AO2 T01670139 =
2018-09-19 18:53 METAR KOWD 192253Z 06005KT 10SM FEW021 OVC050 17/14 A3003 RMK AO2 SLP169
                 T01720139 =
2018-09-19 17:53 METAR KOWD 192153Z 05007KT 10SM FEW016 SCT021 OVC050 18/14 A3002 RMK AO2 SLP163
                 T01780144 =
2018-09-19 17:45 METAR KOWD 192145Z 06008KT 10SM SCT019 OVC050 18/14 A3001 RMK AO2 T01830144 =
2018-09-19 17:36 METAR KOWD 192136Z 06006KT 10SM BKN019 OVC050 18/14 A3000 RMK AO2 T01830144 =
2018-09-19 17:00 METAR KOWD 192100Z 06007KT 10SM SCT017 OVC049 18/14 A2998 RMK AO2 T01830144 =
2018-09-19 16:53 METAR KOWD 192053Z 05008KT 10SM BKN017 OVC049 18/14 A2998 RMK AO2 SLP151
                 T01830144 53004 =
2018-09-19 15:53 METAR KOWD 191953Z 06005KT 10SM OVC015 18/15 A2997 RMK AO2 SLP149 T01830150 =
2018-09-19 15:23 METAR KOWD 191923Z 04008KT 10SM BKN015 OVC020 18/15 A2997 RMK AO2 T01830150 =
2018-09-19 15:00 METAR KOWD 191900Z 04006KT 10SM BKN013 OVC020 18/16 A2997 RMK AO2 T01830156 =
2018-09-19 14:53 METAR KOWD 191853Z 05008KT 10SM OVC009 18/16 A2997 RMK AO2 SLP147 T01830156 =
2018-09-19 13:53 METAR KOWD 191753Z 05007KT 10SM BKN009 OVC016 18/16 A2997 RMK AO2 SLP147
                 T01830161 10189 20178 53004 =

Support USWX by starting your Amazon purchase here.